createdAt,value
2017-11-20T00:00:36.276Z,95102.55
2017-11-20T00:03:04.637Z,95105.41
2017-11-20T00:05:33.028Z,95108.45
2017-11-20T00:08:01.371Z,95109.81
2017-11-20T00:10:29.761Z,95102.94
2017-11-20T00:12:58.120Z,95107.59
2017-11-20T00:15:26.485Z,95110.63
2017-11-20T00:17:54.831Z,95102.42
2017-11-20T00:20:23.187Z,95106.07
2017-11-20T00:22:51.573Z,95109.15
2017-11-20T00:25:19.921Z,95106.55
2017-11-20T00:27:48.276Z,95098.25
2017-11-20T00:30:16.669Z,95109.94
2017-11-20T00:32:45.019Z,95106.48
2017-11-20T00:35:13.421Z,95102.88
2017-11-20T00:37:41.781Z,95095.33
2017-11-20T00:40:10.141Z,95096.68
2017-11-20T00:42:38.532Z,95092.28
2017-11-20T00:45:06.901Z,95087.06
2017-11-20T00:47:35.257Z,95091.08
2017-11-20T00:50:03.598Z,95084.31
2017-11-20T00:52:31.976Z,95081.53
2017-11-20T00:55:00.335Z,95085.36
2017-11-20T00:57:28.713Z,95091.66
2017-11-20T00:59:57.061Z,95084.51
2017-11-20T01:02:25.439Z,95096.09
2017-11-20T01:04:53.800Z,95089.49
2017-11-20T01:07:22.144Z,95093.25
2017-11-20T01:09:50.496Z,95073.08
2017-11-20T01:12:18.856Z,95085.87
2017-11-20T01:14:47.225Z,95087.95
2017-11-20T01:17:15.602Z,95094.81
2017-11-20T01:19:43.946Z,95088.03
2017-11-20T01:22:12.313Z,95098.25
2017-11-20T01:24:40.664Z,95090.59
2017-11-20T01:27:09.156Z,95102.58
2017-11-20T01:29:37.513Z,95097.19
2017-11-20T01:32:05.865Z,95104.43
2017-11-20T01:34:34.237Z,95106.14
2017-11-20T01:37:02.601Z,95100.83
2017-11-20T01:39:30.964Z,95107.33
2017-11-20T01:41:59.333Z,95097.00
2017-11-20T01:44:27.685Z,95096.00
2017-11-20T01:46:56.067Z,95099.08
2017-11-20T01:49:24.460Z,95098.05
2017-11-20T01:51:52.822Z,95085.31
2017-11-20T01:54:21.161Z,95096.98
2017-11-20T01:56:49.537Z,95096.39
2017-11-20T01:59:17.912Z,95096.21
2017-11-20T02:01:46.380Z,95096.09
2017-11-20T02:04:14.751Z,95089.23
2017-11-20T02:06:43.105Z,95085.87
2017-11-20T02:09:11.462Z,95093.03
2017-11-20T02:11:39.809Z,95089.44
2017-11-20T02:14:08.179Z,95096.30
2017-11-20T02:16:36.529Z,95100.42
2017-11-20T02:19:04.936Z,95102.70
2017-11-20T02:21:33.275Z,95101.02
2017-11-20T02:24:01.635Z,95097.69
2017-11-20T02:26:30.032Z,95107.11
2017-11-20T02:28:58.380Z,95099.03
2017-11-20T02:31:26.736Z,95094.70
2017-11-20T02:33:55.094Z,95094.05
2017-11-20T02:36:23.464Z,95098.75
2017-11-20T02:38:51.870Z,95089.81
2017-11-20T02:41:20.215Z,95076.16
2017-11-20T02:43:48.570Z,95087.03
2017-11-20T02:46:16.954Z,95086.67
2017-11-20T02:48:45.318Z,95083.21
2017-11-20T02:51:13.693Z,95099.02
2017-11-20T02:53:42.049Z,95091.55
2017-11-20T02:56:10.552Z,95096.44
2017-11-20T02:58:38.907Z,95089.08
2017-11-20T03:01:07.256Z,95095.72
2017-11-20T03:03:35.596Z,95091.63
2017-11-20T03:06:03.976Z,95091.33
2017-11-20T03:08:32.367Z,95084.25
2017-11-20T03:11:00.715Z,95085.05
2017-11-20T03:13:29.072Z,95081.11
2017-11-20T03:15:57.439Z,95089.08
2017-11-20T03:18:25.792Z,95095.16
2017-11-20T03:20:54.276Z,95089.18
2017-11-20T03:23:22.648Z,95092.94
2017-11-20T03:25:50.997Z,95086.10
2017-11-20T03:28:19.356Z,95085.14
2017-11-20T03:30:47.714Z,95088.37
2017-11-20T03:33:16.092Z,95081.62
2017-11-20T03:35:44.474Z,95086.66
2017-11-20T03:38:12.853Z,95085.06
2017-11-20T03:40:41.216Z,95081.23
2017-11-20T03:43:09.567Z,95080.53
2017-11-20T03:45:37.987Z,95080.59
2017-11-20T03:48:06.342Z,95091.24
2017-11-20T03:50:34.705Z,95088.19
2017-11-20T03:53:03.064Z,95090.69
2017-11-20T03:55:31.416Z,95089.21
2017-11-20T03:57:59.808Z,95092.57
2017-11-20T04:00:31.457Z,95090.58
2017-11-20T04:02:59.830Z,95080.34
2017-11-20T04:05:28.224Z,95088.03
2017-11-20T04:07:56.585Z,95084.41
2017-11-20T04:10:24.951Z,95077.69
2017-11-20T04:12:53.305Z,95080.73
2017-11-20T04:15:21.659Z,95069.45
2017-11-20T04:17:50.057Z,95078.58
2017-11-20T04:20:18.409Z,95074.73
2017-11-20T04:22:46.764Z,95064.52
2017-11-20T04:25:15.141Z,95068.14
2017-11-20T04:27:43.498Z,95068.55
2017-11-20T04:30:11.895Z,95064.72
2017-11-20T04:32:40.246Z,95056.59
2017-11-20T04:35:08.592Z,95057.53
2017-11-20T04:37:36.952Z,95065.72
2017-11-20T04:40:05.312Z,95063.25
2017-11-20T04:42:33.697Z,95063.55
2017-11-20T04:45:02.052Z,95060.86
2017-11-20T04:47:30.440Z,95073.23
2017-11-20T04:49:58.806Z,95074.13
2017-11-20T04:52:27.165Z,95077.42
2017-11-20T04:54:55.537Z,95081.49
2017-11-20T04:57:23.879Z,95080.17
2017-11-20T04:59:52.262Z,95081.74
2017-11-20T05:02:20.609Z,95081.96
2017-11-20T05:04:48.957Z,95078.39
2017-11-20T05:07:17.307Z,95074.05
2017-11-20T05:09:45.668Z,95070.30
2017-11-20T05:12:14.040Z,95076.59
2017-11-20T05:14:42.399Z,95074.16
2017-11-20T05:17:10.756Z,95071.81
2017-11-20T05:19:39.101Z,95069.66
2017-11-20T05:22:07.449Z,95067.59
2017-11-20T05:24:35.831Z,95072.61
2017-11-20T05:27:04.177Z,95073.43
2017-11-20T05:29:32.520Z,95070.99
2017-11-20T05:32:00.880Z,95070.55
2017-11-20T05:34:29.251Z,95072.09
2017-11-20T05:36:57.621Z,95075.49
2017-11-20T05:39:25.964Z,95067.59
2017-11-20T05:41:54.308Z,95071.93
2017-11-20T05:44:22.671Z,95078.77
2017-11-20T05:46:51.038Z,95078.65
2017-11-20T05:49:19.428Z,95066.22
2017-11-20T05:51:47.788Z,95071.02
2017-11-20T05:54:16.136Z,95073.39
2017-11-20T05:56:44.488Z,95075.58
2017-11-20T05:59:12.845Z,95075.98
2017-11-20T06:01:41.240Z,95075.56
2017-11-20T06:04:09.598Z,95075.33
2017-11-20T06:06:37.952Z,95072.05
2017-11-20T06:09:06.334Z,95071.50
2017-11-20T06:11:34.687Z,95068.35
2017-11-20T06:14:03.074Z,95070.70
2017-11-20T06:16:31.452Z,95064.56
2017-11-20T06:18:59.842Z,95068.28
2017-11-20T06:21:28.204Z,95071.83
2017-11-20T06:23:56.564Z,95076.62
2017-11-20T06:26:24.944Z,95080.38
2017-11-20T06:28:53.304Z,95075.59
2017-11-20T06:31:21.672Z,95069.63
2017-11-20T06:33:50.042Z,95077.34
2017-11-20T06:36:18.400Z,95073.52
2017-11-20T06:38:46.798Z,95076.53
2017-11-20T06:41:15.164Z,95084.02
2017-11-20T06:43:43.526Z,95084.06
2017-11-20T06:46:11.883Z,95080.25
2017-11-20T06:48:40.251Z,95081.55
2017-11-20T06:51:08.641Z,95087.06
2017-11-20T06:53:37.004Z,95091.48
2017-11-20T06:56:05.357Z,95089.08
2017-11-20T06:58:33.700Z,95087.42
2017-11-20T07:01:02.057Z,95085.81
2017-11-20T07:03:30.444Z,95089.55
2017-11-20T07:05:58.803Z,95094.11
2017-11-20T07:08:27.165Z,95094.69
2017-11-20T07:10:55.519Z,95092.20
2017-11-20T07:13:23.888Z,95094.10
2017-11-20T07:15:52.285Z,95101.63
2017-11-20T07:18:20.638Z,95096.33
2017-11-20T07:20:49.032Z,95090.08
2017-11-20T07:23:17.391Z,95097.99
2017-11-20T07:25:57.456Z,95098.41
2017-11-20T07:28:37.572Z,95089.91
2017-11-20T07:31:17.745Z,95091.13
2017-11-20T07:33:57.899Z,95088.44
2017-11-20T07:36:38.191Z,95085.42
2017-11-20T07:39:12.236Z,95092.58
2017-11-20T07:41:52.457Z,95081.27
2017-11-20T07:44:20.818Z,95082.45
2017-11-20T07:46:49.171Z,95085.59
2017-11-20T07:49:17.528Z,95085.48
2017-11-20T07:51:45.893Z,95082.23
2017-11-20T07:54:14.247Z,95083.16
2017-11-20T07:56:42.625Z,95092.67
2017-11-20T07:59:10.986Z,95095.58
2017-11-20T08:01:39.344Z,95093.63
2017-11-20T08:04:07.741Z,95094.72
2017-11-20T08:06:36.107Z,95094.43
2017-11-20T08:09:04.467Z,95093.31
2017-11-20T08:11:32.953Z,95093.00
2017-11-20T08:14:01.304Z,95096.73
2017-11-20T08:16:29.654Z,95102.64
2017-11-20T08:18:58.144Z,95097.74
2017-11-20T08:21:26.512Z,95094.47
2017-11-20T08:23:54.865Z,95085.75
2017-11-20T08:26:23.347Z,95082.73
2017-11-20T08:28:51.709Z,95101.92
2017-11-20T08:31:20.063Z,95094.59
2017-11-20T08:33:48.447Z,95089.02
2017-11-20T08:36:16.805Z,95086.33
2017-11-20T08:38:45.156Z,95090.75
2017-11-20T08:41:13.548Z,95095.77
2017-11-20T08:43:41.897Z,95082.45
2017-11-20T08:46:10.257Z,95095.53
2017-11-20T08:48:38.607Z,95083.41
2017-11-20T08:51:06.967Z,95075.49
2017-11-20T08:53:35.313Z,95065.84
2017-11-20T08:56:03.692Z,95078.14
2017-11-20T08:58:32.048Z,95084.36
2017-11-20T09:01:00.462Z,95076.42
2017-11-20T09:03:28.940Z,95072.79
2017-11-20T09:05:57.288Z,95069.25
2017-11-20T09:08:25.649Z,95071.52
2017-11-20T09:10:54.033Z,95066.00
2017-11-20T09:13:22.387Z,95067.80
2017-11-20T09:15:50.737Z,95071.95
2017-11-20T09:18:19.213Z,95066.05
2017-11-20T09:20:47.573Z,95067.92
2017-11-20T09:23:15.916Z,95071.06
2017-11-20T09:25:44.413Z,95072.44
2017-11-20T09:28:12.764Z,95065.20
2017-11-20T09:30:41.110Z,95065.33
2017-11-20T09:33:09.516Z,95075.70
2017-11-20T09:35:37.869Z,95068.06
2017-11-20T09:38:06.221Z,95069.55
2017-11-20T09:40:34.599Z,95067.71
2017-11-20T09:43:02.957Z,95065.42
2017-11-20T09:45:31.307Z,95063.28
2017-11-20T09:47:59.668Z,95074.38
2017-11-20T09:50:28.024Z,95068.31
2017-11-20T09:52:56.408Z,95072.85
2017-11-20T09:55:24.773Z,95068.56
2017-11-20T09:57:53.134Z,95063.58
2017-11-20T10:00:21.503Z,95057.79
2017-11-20T10:02:49.856Z,95060.38
2017-11-20T10:05:18.240Z,95052.22
2017-11-20T10:07:46.605Z,95048.34
2017-11-20T10:10:14.968Z,95040.30
2017-11-20T10:12:43.314Z,95042.84
2017-11-20T10:15:11.668Z,95036.26
2017-11-20T10:17:40.127Z,95036.85
2017-11-20T10:20:08.490Z,95035.27
2017-11-20T10:22:36.840Z,95031.37
2017-11-20T10:25:05.286Z,95031.41
2017-11-20T10:27:33.640Z,95040.34
2017-11-20T10:30:02.116Z,95029.84
2017-11-20T10:32:30.471Z,95025.43
2017-11-20T10:34:58.865Z,95009.95
2017-11-20T10:37:27.219Z,95009.48
2017-11-20T10:39:55.709Z,95009.31
2017-11-20T10:42:24.069Z,95008.20
2017-11-20T10:44:52.431Z,95001.57
2017-11-20T10:47:20.784Z,94995.20
2017-11-20T10:49:49.130Z,94999.72
2017-11-20T10:52:17.508Z,94993.55
2017-11-20T10:54:45.865Z,94996.42
2017-11-20T10:57:14.207Z,94988.30
2017-11-20T10:59:42.567Z,94988.20
2017-11-20T11:02:11.816Z,94986.02
2017-11-20T11:04:40.475Z,94986.44
2017-11-20T11:07:08.820Z,94983.75
2017-11-20T11:09:37.169Z,94974.45
2017-11-20T11:12:05.537Z,94965.21
2017-11-20T11:14:33.911Z,94958.58
2017-11-20T11:17:02.297Z,94965.35
2017-11-20T11:19:30.660Z,94953.33
2017-11-20T11:21:59.054Z,94949.89
2017-11-20T11:24:27.404Z,94948.98
2017-11-20T11:26:55.777Z,94949.30
2017-11-20T11:29:24.120Z,94949.14
2017-11-20T11:31:52.484Z,94943.44
2017-11-20T11:34:20.865Z,94935.37
2017-11-20T11:36:49.279Z,94932.50
2017-11-20T11:39:18.175Z,94928.67
2017-11-20T11:41:47.705Z,94920.59
2017-11-20T11:44:14.417Z,94910.97
2017-11-20T11:46:42.764Z,94914.70
2017-11-20T11:49:11.144Z,94914.29
2017-11-20T11:51:39.493Z,94916.20
2017-11-20T11:54:07.893Z,94913.17
2017-11-20T11:56:36.249Z,94911.75
2017-11-20T11:59:04.598Z,94908.84
2017-11-20T12:01:32.956Z,94900.71
2017-11-20T12:04:01.320Z,94907.52
2017-11-20T12:06:29.704Z,94896.23
2017-11-20T12:08:58.069Z,94898.44
2017-11-20T12:11:26.471Z,94896.96
2017-11-20T12:13:54.829Z,94892.06
2017-11-20T12:16:23.183Z,94892.00
2017-11-20T12:18:51.555Z,94885.31
2017-11-20T12:21:19.901Z,94883.84
2017-11-20T12:23:48.312Z,94886.95
2017-11-20T12:26:16.701Z,94882.36
2017-11-20T12:28:45.066Z,94873.02
2017-11-20T12:31:13.426Z,94866.68
2017-11-20T12:33:41.775Z,94873.36
2017-11-20T12:36:10.172Z,94868.86
2017-11-20T12:38:38.539Z,94866.31
2017-11-20T12:41:06.893Z,94862.88
2017-11-20T12:43:35.241Z,94860.69
2017-11-20T12:46:03.588Z,94851.17
2017-11-20T12:48:31.975Z,94859.42
2017-11-20T12:51:00.338Z,94860.01
2017-11-20T12:53:28.696Z,94858.90
2017-11-20T12:55:57.061Z,94858.81
2017-11-20T12:58:25.428Z,94859.89
2017-11-20T13:00:53.785Z,94852.13
2017-11-20T13:03:22.132Z,94843.77
2017-11-20T13:05:50.473Z,94833.16
2017-11-20T13:08:18.817Z,94827.64
2017-11-20T13:10:47.279Z,94818.92
2017-11-20T13:13:15.624Z,94818.84
2017-11-20T13:15:43.976Z,94817.56
2017-11-20T13:18:12.349Z,94818.05
2017-11-20T13:20:40.709Z,94808.33
2017-11-20T13:23:09.104Z,94804.50
2017-11-20T13:25:37.593Z,94801.63
2017-11-20T13:28:05.952Z,94803.69
2017-11-20T13:30:34.299Z,94792.29
2017-11-20T13:33:02.644Z,94789.27
2017-11-20T13:35:30.989Z,94786.50
2017-11-20T13:37:59.369Z,94786.05
2017-11-20T13:40:27.933Z,94784.47
2017-11-20T13:42:56.503Z,94793.80
2017-11-20T13:45:25.485Z,94779.96
2017-11-20T13:47:54.082Z,94765.91
2017-11-20T13:50:22.803Z,94766.78
2017-11-20T13:52:51.502Z,94767.09
2017-11-20T13:55:20.150Z,94771.00
2017-11-20T13:57:49.019Z,94761.61
2017-11-20T14:00:17.645Z,94754.31
2017-11-20T14:02:46.292Z,94752.58
2017-11-20T14:05:16.811Z,94747.95
2017-11-20T14:07:45.341Z,94746.58
2017-11-20T14:10:14.091Z,94734.02
2017-11-20T14:12:42.667Z,94733.42
2017-11-20T14:15:11.049Z,94731.55
2017-11-20T14:17:39.538Z,94722.92
2017-11-20T14:20:08.138Z,94721.31
2017-11-20T14:22:36.836Z,94717.20
2017-11-20T14:25:05.657Z,94710.42
2017-11-20T14:27:35.312Z,94700.10
2017-11-20T14:30:04.046Z,94703.72
2017-11-20T14:32:32.749Z,94689.61
2017-11-20T14:35:01.560Z,94691.62
2017-11-20T14:37:30.359Z,94678.95
2017-11-20T14:39:59.285Z,94680.73
2017-11-20T14:42:28.006Z,94674.95
2017-11-20T14:44:56.885Z,94678.55
2017-11-20T14:47:25.481Z,94675.80
2017-11-20T14:49:54.092Z,94663.69
2017-11-20T14:52:36.478Z,94662.91
2017-11-20T14:55:05.202Z,94659.28
2017-11-20T14:57:33.901Z,94653.70
2017-11-20T15:00:02.736Z,94658.31
2017-11-20T15:02:31.314Z,94646.47
2017-11-20T15:04:59.980Z,94648.92
2017-11-20T15:07:28.737Z,94644.40
2017-11-20T15:09:57.576Z,94629.34
2017-11-20T15:12:26.209Z,94633.20
2017-11-20T15:14:54.817Z,94623.87
2017-11-20T15:17:23.443Z,94604.52
2017-11-20T15:19:52.158Z,94602.87
2017-11-20T15:22:20.953Z,94594.57
2017-11-20T15:24:49.698Z,94589.75
2017-11-20T15:27:18.515Z,94598.27
2017-11-20T15:29:47.093Z,94596.88
2017-11-20T15:32:15.756Z,94596.52
2017-11-20T15:34:44.508Z,94602.77
2017-11-20T15:37:14.045Z,94611.20
2017-11-20T15:42:16.236Z,94600.59
2017-11-20T15:44:44.713Z,94591.80
2017-11-20T15:47:13.270Z,94588.07
2017-11-20T15:49:41.868Z,94582.22
2017-11-20T15:52:10.339Z,94582.77
2017-11-20T15:54:39.716Z,94585.52
2017-11-20T15:57:08.368Z,94588.28
2017-11-20T15:59:36.967Z,94578.36
2017-11-20T16:02:05.424Z,94578.48
2017-11-20T16:04:34.195Z,94571.61
2017-11-20T16:07:03.025Z,94566.36
2017-11-20T16:09:31.677Z,94575.45
2017-11-20T16:12:00.346Z,94571.84
2017-11-20T16:14:28.910Z,94585.66
2017-11-20T16:16:57.495Z,94570.81
2017-11-20T16:19:26.136Z,94566.70
2017-11-20T16:21:54.803Z,94574.14
2017-11-20T16:24:23.292Z,94561.33
2017-11-20T16:26:51.812Z,94554.17
2017-11-20T16:29:20.389Z,94558.81
2017-11-20T16:31:49.062Z,94547.95
2017-11-20T16:34:17.698Z,94549.87
2017-11-20T16:36:46.341Z,94537.03
2017-11-20T16:39:14.923Z,94538.19
2017-11-20T16:41:43.569Z,94533.30
2017-11-20T16:44:12.143Z,94533.02
2017-11-20T16:46:41.579Z,94533.11
2017-11-20T16:49:10.289Z,94529.21
2017-11-20T16:51:38.802Z,94525.33
2017-11-20T16:54:07.381Z,94524.27
2017-11-20T16:56:36.014Z,94524.25
2017-11-20T16:59:09.514Z,94518.09
2017-11-20T17:01:49.709Z,94518.61
2017-11-20T17:04:18.190Z,94516.27
2017-11-20T17:06:46.845Z,94516.08
2017-11-20T17:09:15.699Z,94518.25
2017-11-20T17:11:45.081Z,94508.31
2017-11-20T17:14:13.751Z,94510.30
2017-11-20T17:16:42.375Z,94498.05
2017-11-20T17:19:11.109Z,94502.14
2017-11-20T17:21:39.638Z,94502.97
2017-11-20T17:24:08.310Z,94505.05
2017-11-20T17:26:37.006Z,94504.34
2017-11-20T17:29:06.597Z,94508.60
2017-11-20T17:31:35.246Z,94510.72
2017-11-20T17:34:03.954Z,94512.38
2017-11-20T17:36:32.574Z,94498.44
2017-11-20T17:39:01.191Z,94497.00
2017-11-20T17:41:29.884Z,94502.31
2017-11-20T17:43:58.518Z,94501.01
2017-11-20T17:46:27.054Z,94485.74
2017-11-20T17:48:55.688Z,94483.83
2017-11-20T17:51:24.362Z,94481.30
2017-11-20T17:53:53.142Z,94488.30
2017-11-20T17:56:21.725Z,94474.98
2017-11-20T17:58:50.324Z,94480.64
2017-11-20T18:01:18.892Z,94473.59
2017-11-20T18:03:47.487Z,94479.14
2017-11-20T18:06:16.143Z,94480.12
2017-11-20T18:08:44.613Z,94465.94
2017-11-20T18:11:13.130Z,94470.14
2017-11-20T18:13:41.824Z,94471.14
2017-11-20T18:16:10.475Z,94463.07
2017-11-20T18:18:39.092Z,94467.47
2017-11-20T18:21:07.607Z,94465.19
2017-11-20T18:23:36.043Z,94461.88
2017-11-20T18:26:04.376Z,94468.77
2017-11-20T18:28:32.759Z,94454.34
2017-11-20T18:31:01.095Z,94454.26
2017-11-20T18:33:29.432Z,94450.39
2017-11-20T18:35:57.780Z,94441.72
2017-11-20T18:38:26.119Z,94439.66
2017-11-20T18:40:54.488Z,94437.50
2017-11-20T18:43:22.857Z,94441.77
2017-11-20T18:45:51.205Z,94446.36
2017-11-20T18:48:19.541Z,94442.69
2017-11-20T18:50:47.916Z,94439.88
2017-11-20T18:53:16.284Z,94451.55
2017-11-20T18:55:44.646Z,94438.94
2017-11-20T18:58:13.003Z,94432.39
2017-11-20T19:00:53.003Z,94428.62
2017-11-20T19:03:25.895Z,94428.11
2017-11-20T19:06:05.786Z,94424.52
2017-11-20T19:11:35.721Z,94424.39
2017-11-20T19:14:04.181Z,94421.67
2017-11-20T19:16:32.536Z,94422.68
2017-11-20T19:19:00.892Z,94424.60
2017-11-20T19:21:29.228Z,94415.00
2017-11-20T19:23:57.585Z,94423.09
2017-11-20T19:26:25.953Z,94408.61
2017-11-20T19:28:54.301Z,94413.55
2017-11-20T19:31:22.640Z,94418.94
2017-11-20T19:33:50.985Z,94412.74
2017-11-20T19:36:19.319Z,94404.59
2017-11-20T19:38:47.700Z,94405.61
2017-11-20T19:41:16.040Z,94410.69
2017-11-20T19:43:44.411Z,94412.20
2017-11-20T19:46:12.759Z,94405.16
2017-11-20T19:48:41.099Z,94407.52
2017-11-20T19:51:09.556Z,94417.77
2017-11-20T19:53:38.076Z,94405.75
2017-11-20T19:56:06.668Z,94404.31
2017-11-20T19:58:35.267Z,94400.44
2017-11-20T20:01:03.624Z,94411.18
2017-11-20T20:03:32.008Z,94397.84
2017-11-20T20:06:00.355Z,94392.41
2017-11-20T20:08:28.696Z,94393.77
2017-11-20T20:10:57.036Z,94399.30
2017-11-20T20:13:37.308Z,94403.15
2017-11-20T20:19:11.969Z,94406.59
2017-11-20T20:21:40.331Z,94408.30
2017-11-20T20:24:08.688Z,94409.89
2017-11-20T20:26:37.963Z,94411.38
2017-11-20T20:29:06.329Z,94413.55
2017-11-20T20:31:34.676Z,94414.78
2017-11-20T20:34:03.025Z,94417.69
2017-11-20T20:36:31.399Z,94414.31
2017-11-20T20:38:59.748Z,94415.72
2017-11-20T20:41:28.108Z,94418.44
2017-11-20T20:43:57.413Z,94412.98
2017-11-20T20:46:25.780Z,94407.37
2017-11-20T20:48:54.175Z,94414.41
2017-11-20T20:51:22.543Z,94403.62
2017-11-20T20:53:50.921Z,94406.36
2017-11-20T20:56:19.285Z,94403.42
2017-11-20T20:58:47.772Z,94400.91
2017-11-20T21:01:16.180Z,94390.53
2017-11-20T21:03:44.529Z,94401.41
2017-11-20T21:06:12.882Z,94397.69
2017-11-20T21:08:41.249Z,94388.07
2017-11-20T21:11:15.041Z,94391.03
2017-11-20T21:13:43.419Z,94384.94
2017-11-20T21:16:11.915Z,94373.17
2017-11-20T21:18:40.292Z,94383.23
2017-11-20T21:21:08.640Z,94380.31
2017-11-20T21:23:36.996Z,94376.17
2017-11-20T21:26:05.340Z,94380.47
2017-11-20T21:28:33.691Z,94384.00
2017-11-20T21:31:02.133Z,94375.41
2017-11-20T21:33:30.482Z,94371.56
2017-11-20T21:35:58.878Z,94375.41
2017-11-20T21:38:27.231Z,94379.25
2017-11-20T21:40:55.608Z,94375.43
2017-11-20T21:43:23.975Z,94380.30
2017-11-20T21:45:52.334Z,94375.14
2017-11-20T21:48:20.680Z,94382.33
2017-11-20T21:50:49.032Z,94369.47
2017-11-20T21:53:17.411Z,94374.99
2017-11-20T21:55:45.783Z,94377.50
2017-11-20T21:58:14.124Z,94371.09
2017-11-20T22:00:42.467Z,94372.99
2017-11-20T22:03:10.815Z,94366.79
2017-11-20T22:05:39.159Z,94375.38
2017-11-20T22:08:08.356Z,94373.53
2017-11-20T22:10:36.696Z,94369.41
2017-11-20T22:16:08.212Z,94376.75
2017-11-20T22:18:36.899Z,94373.23
2017-11-20T22:21:07.745Z,94376.37
2017-11-20T22:23:36.112Z,94376.37
2017-11-20T22:26:04.447Z,94368.03
2017-11-20T22:28:32.811Z,94369.08
2017-11-20T22:31:01.148Z,94355.02
2017-11-20T22:33:29.493Z,94361.62
2017-11-20T22:35:57.871Z,94360.87
2017-11-20T22:38:26.224Z,94362.98
2017-11-20T22:40:54.571Z,94367.31
2017-11-20T22:43:22.916Z,94363.39
2017-11-20T22:45:51.247Z,94366.09
2017-11-20T22:48:19.621Z,94377.87
2017-11-20T22:50:47.972Z,94365.23
2017-11-20T22:53:16.309Z,94379.20
2017-11-20T22:55:44.644Z,94384.92
2017-11-20T22:58:13.016Z,94388.92
2017-11-20T23:00:41.381Z,94381.65
2017-11-20T23:03:10.720Z,94391.34
2017-11-20T23:05:39.087Z,94392.84
2017-11-20T23:08:07.425Z,94392.08
2017-11-20T23:10:35.776Z,94389.48
2017-11-20T23:13:04.106Z,94387.81
2017-11-20T23:15:32.464Z,94387.19
2017-11-20T23:18:00.832Z,94385.70
2017-11-20T23:20:29.177Z,94384.28
2017-11-20T23:22:57.524Z,94376.66
2017-11-20T23:25:25.863Z,94378.56
2017-11-20T23:27:54.199Z,94370.97
2017-11-20T23:30:22.581Z,94369.59
2017-11-20T23:32:50.920Z,94372.94
2017-11-20T23:35:19.263Z,94373.12
2017-11-20T23:37:47.639Z,94374.68
2017-11-20T23:40:15.975Z,94378.98
2017-11-20T23:42:44.307Z,94375.52
2017-11-20T23:45:12.659Z,94377.56
2017-11-20T23:47:41.001Z,94368.91
2017-11-20T23:50:09.360Z,94376.87
2017-11-20T23:52:37.735Z,94370.00
2017-11-20T23:55:06.079Z,94378.20
2017-11-20T23:57:34.411Z,94374.62
